Time;durP1;ratioP1;P1;durP2;ratioP2;P2;SDS_P1;SDS_P2;PMS_P1;PMS_P2;Temp;Humidity;BMP_temperature;BMP_pressure;BME280_temperature;BME280_humidity;BME280_pressure;Samples;Min_cycle;Max_cycle;Signal;HPM_P1;HPM_P2
2021/11/01 00:02:27;;;;;;;4.80;3.02;;;26.00;99.70;;;;;;1872937;74;21122;-72
2021/11/01 00:04:58;;;;;;;7.40;4.53;;;26.00;99.70;;;;;;1864839;75;21589;-72
2021/11/01 00:07:30;;;;;;;8.90;5.40;;;26.00;99.60;;;;;;1866586;75;21710;-72
2021/11/01 00:10:01;;;;;;;15.38;9.80;;;26.00;99.70;;;;;;1869520;77;21133;-72
2021/11/01 00:12:32;;;;;;;12.85;9.75;;;26.10;99.60;;;;;;1869747;77;21567;-73
2021/11/01 00:15:04;;;;;;;25.72;23.05;;;26.10;99.50;;;;;;1874806;75;21167;-73
2021/11/01 00:17:35;;;;;;;19.45;17.45;;;26.10;99.40;;;;;;1869264;77;21190;-72
2021/11/01 00:20:08;;;;;;;10.78;8.40;;;26.20;99.50;;;;;;1883710;75;21173;-72
2021/11/01 00:22:39;;;;;;;6.55;5.20;;;26.10;99.40;;;;;;1803941;78;21651;-72
2021/11/01 00:25:10;;;;;;;12.05;6.55;;;26.20;99.20;;;;;;1885474;75;21141;-72
2021/11/01 00:27:41;;;;;;;14.10;7.95;;;26.20;99.20;;;;;;1869644;77;21197;-72
2021/11/01 00:30:13;;;;;;;10.40;7.33;;;26.30;99.10;;;;;;1869533;76;21847;-72
2021/11/01 00:32:46;;;;;;;14.05;8.58;;;26.30;99.00;;;;;;1868263;77;21862;-72
2021/11/01 00:35:16;;;;;;;7.30;4.42;;;26.30;98.80;;;;;;1886343;75;21311;-72
2021/11/01 00:37:47;;;;;;;6.30;4.67;;;26.30;98.70;;;;;;1874142;75;21203;-73
2021/11/01 00:40:18;;;;;;;5.42;3.80;;;26.30;98.90;;;;;;1887003;74;21173;-72
2021/11/01 00:42:48;;;;;;;8.68;5.30;;;26.30;98.80;;;;;;1886361;75;21135;-72
2021/11/01 00:45:19;;;;;;;13.13;8.90;;;26.30;98.80;;;;;;1876381;75;21190;-72
2021/11/01 00:47:50;;;;;;;15.25;9.53;;;26.40;98.80;;;;;;1868348;77;21177;-73
2021/11/01 00:50:21;;;;;;;11.90;7.60;;;26.40;98.90;;;;;;1871695;75;21712;-71
2021/11/01 00:52:51;;;;;;;10.23;4.72;;;26.40;98.80;;;;;;1869106;75;21110;-73
2021/11/01 00:55:26;;;;;;;10.50;4.83;;;26.40;98.90;;;;;;1876552;75;21119;-74
2021/11/01 00:57:56;;;;;;;6.85;3.92;;;26.50;99.00;;;;;;1874540;75;21627;-73
2021/11/01 01:00:29;;;;;;;6.47;3.65;;;26.50;98.60;;;;;;1878932;75;21452;-75
2021/11/01 01:02:59;;;;;;;4.87;3.30;;;26.60;98.50;;;;;;1875137;75;21747;-73
2021/11/01 01:05:30;;;;;;;6.50;3.02;;;26.60;98.40;;;;;;1876533;75;21111;-74
2021/11/01 01:08:01;;;;;;;8.70;4.12;;;26.60;98.20;;;;;;1880203;75;21154;-74
2021/11/01 01:10:44;;;;;;;4.90;2.85;;;26.70;98.10;;;;;;1892955;75;21142;-74
2021/11/01 01:13:22;;;;;;;6.72;2.90;;;26.70;98.10;;;;;;1911314;74;21167;-73
2021/11/01 01:18:28;;;;;;;6.72;3.55;;;26.80;98.10;;;;;;1978114;71;21092;-74
2021/11/01 01:20:56;;;;;;;6.03;2.92;;;26.90;98.20;;;;;;1982740;70;21187;-73
2021/11/01 01:23:26;;;;;;;6.10;3.22;;;26.90;98.00;;;;;;1991830;72;21136;-74
2021/11/01 01:25:59;;;;;;;6.90;3.33;;;27.00;98.10;;;;;;1982977;72;21155;-74
2021/11/01 01:28:31;;;;;;;5.33;3.27;;;27.00;98.10;;;;;;1987626;72;21138;-73
2021/11/01 01:31:02;;;;;;;3.42;2.70;;;27.00;98.00;;;;;;1988416;72;21140;-73
2021/11/01 01:33:33;;;;;;;4.42;2.90;;;27.00;97.90;;;;;;1984910;72;21668;-73
2021/11/01 01:36:05;;;;;;;5.92;2.67;;;27.00;97.90;;;;;;1985134;70;21079;-73
2021/11/01 01:38:36;;;;;;;4.90;3.22;;;27.10;97.70;;;;;;1994705;70;21577;-73
2021/11/01 01:41:09;;;;;;;6.03;3.37;;;27.10;97.50;;;;;;1983645;70;21084;-73
2021/11/01 01:43:41;;;;;;;5.83;2.72;;;27.20;97.60;;;;;;1978944;70;21008;-73
2021/11/01 01:46:12;;;;;;;6.00;2.62;;;27.20;97.50;;;;;;1990981;72;21140;-73
2021/11/01 01:48:43;;;;;;;6.50;3.70;;;27.30;97.50;;;;;;1991616;72;21101;-73
2021/11/01 01:51:14;;;;;;;7.65;3.60;;;27.30;97.40;;;;;;1984665;72;21680;-73
2021/11/01 01:53:45;;;;;;;6.37;3.75;;;27.30;97.30;;;;;;1993007;70;21044;-73
2021/11/01 01:56:16;;;;;;;5.35;2.90;;;27.30;97.30;;;;;;1969038;72;21076;-73
2021/11/01 01:58:54;;;;;;;5.90;2.83;;;27.40;97.10;;;;;;1987453;72;21108;-73
2021/11/01 02:01:25;;;;;;;5.55;3.02;;;27.40;97.10;;;;;;1950008;72;21060;-73
2021/11/01 02:03:57;;;;;;;4.53;2.70;;;27.50;97.00;;;;;;1983775;72;21645;-73
2021/11/01 02:06:30;;;;;;;5.15;2.42;;;27.60;96.50;;;;;;1987123;72;21240;-73
2021/11/01 02:09:04;;;;;;;8.58;2.50;;;27.70;96.60;;;;;;1984391;72;21050;-74
2021/11/01 02:11:37;;;;;;;5.97;2.83;;;27.70;96.40;;;;;;1988280;71;21150;-73
2021/11/01 02:14:10;;;;;;;4.87;3.02;;;27.80;96.30;;;;;;2011999;70;21041;-73
2021/11/01 02:16:44;;;;;;;5.12;2.85;;;27.80;96.30;;;;;;1996700;72;22044;-72
2021/11/01 02:19:17;;;;;;;7.37;3.12;;;27.90;96.30;;;;;;1994886;72;21078;-73
2021/11/01 02:21:50;;;;;;;3.85;2.52;;;27.90;96.10;;;;;;1999039;72;21222;-72
2021/11/01 02:24:23;;;;;;;5.47;2.35;;;27.90;95.90;;;;;;1993073;72;21093;-72
2021/11/01 02:26:54;;;;;;;5.70;2.70;;;27.90;96.00;;;;;;1993354;72;21126;-72
2021/11/01 02:29:26;;;;;;;6.53;2.75;;;28.00;95.80;;;;;;1996870;70;21680;-77
2021/11/01 02:31:57;;;;;;;7.10;2.58;;;28.00;95.50;;;;;;1994183;72;21211;-76
2021/11/01 02:34:29;;;;;;;5.12;2.92;;;28.10;95.30;;;;;;1998139;71;21081;-75
2021/11/01 02:37:00;;;;;;;3.58;2.45;;;28.20;95.30;;;;;;1993788;72;21635;-75
2021/11/01 02:39:33;;;;;;;4.97;2.58;;;28.20;95.10;;;;;;1998189;70;21110;-75
2021/11/01 02:42:03;;;;;;;5.30;2.47;;;28.30;95.10;;;;;;1998254;72;21574;-76
2021/11/01 02:44:34;;;;;;;4.22;2.50;;;28.40;94.80;;;;;;1998715;70;21122;-74
2021/11/01 02:47:05;;;;;;;6.35;2.87;;;28.40;94.70;;;;;;1997801;70;21161;-74
2021/11/01 02:49:36;;;;;;;7.00;2.90;;;28.60;94.50;;;;;;1994549;72;21028;-74
2021/11/01 02:52:07;;;;;;;5.08;2.65;;;28.70;94.20;;;;;;1995423;71;21467;-75
2021/11/01 02:54:38;;;;;;;6.03;2.45;;;28.80;94.00;;;;;;1998057;72;21102;-79
2021/11/01 02:57:09;;;;;;;6.67;2.40;;;28.90;94.00;;;;;;1999628;72;21137;-78
2021/11/01 02:59:40;;;;;;;6.17;2.80;;;28.90;93.60;;;;;;1999588;72;21063;-78
2021/11/01 03:02:11;;;;;;;6.87;3.45;;;29.00;93.60;;;;;;1995800;72;21542;-76
2021/11/01 03:04:43;;;;;;;3.90;2.27;;;29.00;93.60;;;;;;1995715;72;21594;-75
2021/11/01 03:07:14;;;;;;;4.87;2.40;;;29.10;93.70;;;;;;1959195;72;21161;-76
2021/11/01 03:09:47;;;;;;;6.05;2.40;;;29.20;93.00;;;;;;1998603;72;21557;-75
2021/11/01 03:12:24;;;;;;;6.45;2.67;;;29.30;93.00;;;;;;2001526;70;21094;-74
2021/11/01 03:14:54;;;;;;;4.40;2.60;;;29.40;93.00;;;;;;2007750;70;21077;-75
2021/11/01 03:17:28;;;;;;;5.90;2.50;;;29.60;93.40;;;;;;1965100;72;21103;-74
2021/11/01 03:20:02;;;;;;;4.90;2.17;;;29.70;92.80;;;;;;1989149;72;21634;-74
2021/11/01 03:22:35;;;;;;;5.20;2.50;;;29.80;92.70;;;;;;1980551;72;21658;-74
2021/11/01 03:25:10;;;;;;;5.95;2.65;;;30.00;92.60;;;;;;1989656;70;21122;-76
2021/11/01 03:27:43;;;;;;;6.47;2.80;;;30.00;92.30;;;;;;1986798;72;21052;-76
2021/11/01 03:30:16;;;;;;;4.47;2.80;;;30.20;92.00;;;;;;1992493;71;21123;-76
2021/11/01 03:32:49;;;;;;;4.37;2.33;;;30.20;92.00;;;;;;1981775;70;21126;-75
2021/11/01 03:35:22;;;;;;;4.62;2.30;;;30.20;91.60;;;;;;1982537;70;21047;-74
2021/11/01 03:37:55;;;;;;;6.58;2.65;;;30.10;91.90;;;;;;1982913;70;21578;-74
2021/11/01 03:40:27;;;;;;;7.53;3.00;;;30.10;92.30;;;;;;1998065;70;21641;-75
2021/11/01 03:43:01;;;;;;;4.92;2.87;;;30.10;92.10;;;;;;1987987;70;21094;-74
2021/11/01 03:45:33;;;;;;;4.42;2.75;;;30.10;92.30;;;;;;1979920;70;21635;-74
2021/11/01 03:48:08;;;;;;;3.70;2.30;;;30.10;92.10;;;;;;1977692;70;21051;-75
2021/11/01 03:50:47;;;;;;;5.03;2.72;;;30.00;92.10;;;;;;1977477;70;21589;-75
2021/11/01 03:53:10;;;;;;;7.05;2.47;;;29.90;92.40;;;;;;1986244;70;21128;-75
2021/11/01 03:55:41;;;;;;;4.35;2.02;;;29.80;92.30;;;;;;1987212;70;21015;-75
2021/11/01 03:58:12;;;;;;;6.83;2.80;;;29.80;92.40;;;;;;1988831;70;21129;-74
2021/11/01 04:00:44;;;;;;;5.00;1.90;;;29.80;92.50;;;;;;1978560;70;21118;-76
2021/11/01 04:03:14;;;;;;;5.40;2.20;;;29.80;92.50;;;;;;1978520;70;21111;-76
2021/11/01 04:05:45;;;;;;;6.17;2.33;;;29.90;92.40;;;;;;1989428;70;21110;-74
2021/11/01 04:08:17;;;;;;;4.22;2.30;;;30.00;92.30;;;;;;1974951;70;21138;-75
2021/11/01 04:10:48;;;;;;;7.00;2.52;;;30.10;92.30;;;;;;1983440;70;21558;-76
2021/11/01 04:13:19;;;;;;;5.08;2.05;;;30.30;91.90;;;;;;1982804;70;21558;-73
2021/11/01 04:15:58;;;;;;;4.25;2.40;;;30.40;91.40;;;;;;1987883;70;21058;-74
2021/11/01 04:18:30;;;;;;;2.65;1.85;;;30.60;90.90;;;;;;1989593;70;21559;-73
2021/11/01 04:20:57;;;;;;;4.22;2.00;;;30.80;90.10;;;;;;1985957;70;21158;-73
2021/11/01 04:23:31;;;;;;;4.33;2.50;;;30.90;90.30;;;;;;1980057;72;21054;-73
2021/11/01 04:26:01;;;;;;;2.98;1.80;;;30.90;90.20;;;;;;1978846;72;21118;-73
2021/11/01 04:28:34;;;;;;;3.85;1.90;;;31.10;90.30;;;;;;1979835;70;21157;-73
2021/11/01 04:31:10;;;;;;;3.00;1.60;;;31.10;90.10;;;;;;1989806;70;21168;-72
2021/11/01 04:33:38;;;;;;;6.03;1.80;;;31.20;89.80;;;;;;1969211;70;21148;-74
2021/11/01 04:36:10;;;;;;;3.08;1.70;;;31.20;89.90;;;;;;1962269;70;21079;-73
2021/11/01 04:41:21;;;;;;;7.03;2.58;;;31.20;87.60;;;;;;1987690;70;21550;-72
2021/11/01 04:53:54;;;;;;;2.22;1.50;;;31.10;87.70;;;;;;1981981;70;21133;-74
2021/11/01 04:56:26;;;;;;;4.70;1.82;;;31.10;87.70;;;;;;1984287;70;21571;-73
2021/11/01 04:58:58;;;;;;;6.53;1.80;;;31.20;88.40;;;;;;1982912;70;21617;-74
2021/11/01 05:01:39;;;;;;;5.80;1.98;;;31.30;88.00;;;;;;1982973;70;21726;-75
2021/11/01 05:04:05;;;;;;;3.17;1.82;;;31.40;87.10;;;;;;1980066;70;21121;-74
2021/11/01 05:06:36;;;;;;;6.65;2.47;;;31.50;87.90;;;;;;1977230;70;21200;-74
2021/11/01 05:09:09;;;;;;;4.65;2.02;;;31.60;86.40;;;;;;1985927;70;21173;-74
2021/11/01 05:12:28;;;;;;;4.10;1.67;;;31.80;85.50;;;;;;1980368;70;21072;-76
2021/11/01 05:14:14;;;;;;;3.72;1.50;;;31.90;86.00;;;;;;1965391;70;21155;-74
2021/11/01 05:19:25;;;;;;;4.53;1.75;;;32.10;84.40;;;;;;1937087;72;21072;-74
2021/11/01 05:21:58;;;;;;;6.62;1.70;;;32.10;85.00;;;;;;1904068;73;21192;-73
2021/11/01 05:27:22;;;;;;;3.12;1.75;;;31.90;84.50;;;;;;1916219;74;21079;-74
2021/11/01 05:29:26;;;;;;;4.60;2.22;;;31.90;83.70;;;;;;1919628;72;21103;-74
2021/11/01 05:32:03;;;;;;;3.50;1.87;;;31.90;83.90;;;;;;1870821;74;21516;-75
2021/11/01 05:34:29;;;;;;;3.80;1.70;;;31.90;84.00;;;;;;1965956;71;21099;-74
2021/11/01 05:37:01;;;;;;;3.37;1.70;;;31.70;84.40;;;;;;1960411;72;21064;-75
2021/11/01 05:39:32;;;;;;;3.62;1.55;;;31.60;84.50;;;;;;1962831;72;21226;-73
2021/11/01 05:42:03;;;;;;;3.33;1.70;;;31.50;83.60;;;;;;1959487;72;21049;-74
2021/11/01 05:44:34;;;;;;;2.47;1.35;;;31.50;84.60;;;;;;1968079;71;21113;-76
2021/11/01 05:47:06;;;;;;;8.10;1.72;;;31.60;85.30;;;;;;1963178;72;21456;-75
2021/11/01 05:49:39;;;;;;;3.15;1.60;;;31.50;84.40;;;;;;1963027;72;21037;-77
2021/11/01 05:52:20;;;;;;;2.75;1.50;;;31.50;83.80;;;;;;1961509;72;21605;-77
2021/11/01 05:54:42;;;;;;;3.85;1.27;;;31.40;83.60;;;;;;1958582;71;21706;-75
2021/11/01 06:00:05;;;;;;;4.10;1.87;;;31.50;84.70;;;;;;1956493;71;21201;-76
2021/11/01 06:04:58;;;;;;;3.45;1.80;;;31.60;85.70;;;;;;1971320;71;21653;-75
2021/11/01 06:07:28;;;;;;;4.08;1.77;;;31.60;86.70;;;;;;1971569;72;21571;-77
2021/11/01 06:14:57;;;;;;;2.72;1.60;;;31.80;84.70;;;;;;1953270;71;21175;-77
2021/11/01 06:17:31;;;;;;;6.83;1.92;;;31.90;84.40;;;;;;1955224;71;21075;-76
2021/11/01 06:20:01;;;;;;;3.60;1.45;;;32.00;84.50;;;;;;1973725;71;21110;-78
2021/11/01 06:22:31;;;;;;;2.30;1.50;;;31.90;82.50;;;;;;1967349;71;22285;-77
2021/11/01 06:25:06;;;;;;;2.75;1.22;;;31.90;82.60;;;;;;1974817;71;21136;-78
2021/11/01 06:27:36;;;;;;;3.15;1.62;;;31.90;81.90;;;;;;1969899;72;21562;-75
2021/11/01 06:30:19;;;;;;;4.90;1.50;;;32.00;82.10;;;;;;1953941;71;21109;-77
2021/11/01 06:32:45;;;;;;;3.02;1.32;;;32.10;80.60;;;;;;1976650;71;21625;-76
2021/11/01 06:53:25;;;;;;;3.35;1.47;;;32.50;79.90;;;;;;1967433;72;21220;-76
2021/11/01 06:55:54;;;;;;;4.08;1.27;;;32.50;79.70;;;;;;1958582;72;22260;-77
2021/11/01 06:58:11;;;;;;;3.87;1.82;;;32.40;80.80;;;;;;1973065;70;21711;-75
2021/11/01 07:15:54;;;;;;;3.55;1.50;;;32.40;80.80;;;;;;1978736;70;21571;-75
2021/11/01 07:18:28;;;;;;;2.92;1.60;;;32.50;81.40;;;;;;2010824;69;21111;-76
2021/11/01 08:39:47;;;;;;;2.60;1.25;;;31.80;80.30;;;;;;1995008;71;21096;-75
2021/11/01 09:13:04;;;;;;;2.55;1.30;;;31.70;81.70;;;;;;2008220;69;21033;-75
2021/11/01 09:20:12;;;;;;;4.33;1.50;;;31.60;81.50;;;;;;1993610;69;21175;-74
2021/11/01 09:27:56;;;;;;;4.00;1.50;;;31.40;83.30;;;;;;2012024;69;21133;-74
2021/11/01 09:42:59;;;;;;;2.77;1.50;;;31.20;82.80;;;;;;2003386;69;21235;-75
2021/11/01 09:45:33;;;;;;;25.05;5.30;;;31.10;83.10;;;;;;2014148;69;21125;-80
2021/11/01 09:48:03;;;;;;;3.65;1.62;;;31.10;83.10;;;;;;2017346;70;21096;-78
2021/11/01 09:50:35;;;;;;;2.83;1.40;;;31.10;83.10;;;;;;2025615;70;21103;-79
2021/11/01 09:53:18;;;;;;;2.70;1.62;;;31.00;83.20;;;;;;2014722;70;21156;-78
2021/11/01 10:00:47;;;;;;;3.55;1.60;;;30.90;83.40;;;;;;2001356;70;21123;-80
2021/11/01 10:03:18;;;;;;;4.85;1.70;;;30.90;83.80;;;;;;2010155;70;21083;-79
2021/11/01 10:05:52;;;;;;;5.10;1.60;;;30.90;84.00;;;;;;2030847;70;21557;-80
2021/11/01 10:08:24;;;;;;;4.37;1.80;;;30.80;84.70;;;;;;1998339;70;21079;-77
2021/11/01 10:10:55;;;;;;;6.78;2.67;;;30.80;84.60;;;;;;2002080;70;21099;-78
2021/11/01 10:13:28;;;;;;;5.00;2.10;;;30.80;84.70;;;;;;2017373;70;21547;-81
2021/11/01 10:18:32;;;;;;;4.70;1.90;;;30.70;84.80;;;;;;2026425;70;21044;-77
2021/11/01 10:21:03;;;;;;;5.17;2.00;;;30.70;84.70;;;;;;2009488;70;21562;-77
2021/11/01 10:23:35;;;;;;;5.78;1.92;;;30.70;84.90;;;;;;1993197;70;21103;-78
2021/11/01 10:26:06;;;;;;;2.98;2.12;;;30.70;84.90;;;;;;2005192;70;21134;-76
2021/11/01 10:28:37;;;;;;;3.40;1.80;;;30.70;85.10;;;;;;1999295;70;21220;-77
2021/11/01 10:31:09;;;;;;;4.87;2.05;;;30.70;85.20;;;;;;2013508;70;21028;-76
2021/11/01 10:33:46;;;;;;;3.80;1.95;;;30.70;85.30;;;;;;2029432;70;21139;-77
2021/11/01 10:36:16;;;;;;;4.37;2.00;;;30.60;85.20;;;;;;2000070;70;21173;-73
2021/11/01 10:38:49;;;;;;;3.67;1.77;;;30.60;85.20;;;;;;1990382;70;21496;-76
2021/11/01 10:44:12;;;;;;;4.72;1.98;;;30.60;85.20;;;;;;2026536;70;21103;-77
2021/11/01 11:10:55;;;;;;;6.28;3.35;;;30.40;86.20;;;;;;2013554;70;21095;-78
2021/11/01 11:18:15;;;;;;;10.98;3.17;;;30.30;87.40;;;;;;2008226;70;21577;-79
2021/11/01 11:25:05;;;;;;;10.20;5.30;;;30.20;88.10;;;;;;2007020;71;21484;-76
2021/11/01 11:27:38;;;;;;;6.53;3.90;;;30.30;88.20;;;;;;1993133;70;21097;-78
2021/11/01 11:40:24;;;;;;;7.75;3.80;;;30.10;89.00;;;;;;2006489;71;21150;-78
2021/11/01 11:50:28;;;;;;;8.30;4.03;;;30.00;89.20;;;;;;1982543;71;21233;-77
2021/11/01 11:53:01;;;;;;;7.53;3.52;;;30.00;89.40;;;;;;1989805;70;21157;-78
2021/11/01 11:55:32;;;;;;;9.98;4.25;;;30.00;89.70;;;;;;1983992;71;21563;-79
2021/11/01 11:58:05;;;;;;;7.33;4.03;;;30.00;90.00;;;;;;1982457;71;21110;-79
2021/11/01 12:00:37;;;;;;;7.87;4.72;;;30.00;90.00;;;;;;1980561;71;21165;-79
2021/11/01 12:03:11;;;;;;;11.05;6.12;;;29.90;90.00;;;;;;2013236;71;21041;-78
2021/11/01 12:05:51;;;;;;;13.05;7.03;;;29.90;90.10;;;;;;1985512;71;21581;-79
2021/11/01 12:18:33;;;;;;;12.93;6.30;;;29.90;90.40;;;;;;1996707;70;21068;-79
2021/11/01 12:21:04;;;;;;;11.28;6.70;;;29.90;90.50;;;;;;2019030;70;21519;-78
2021/11/01 12:23:37;;;;;;;17.12;7.20;;;29.90;90.60;;;;;;2019199;70;21164;-79
2021/11/01 12:26:10;;;;;;;11.22;6.80;;;29.90;90.70;;;;;;2017716;70;21092;-79
2021/11/01 12:28:43;;;;;;;13.30;6.30;;;29.80;90.80;;;;;;2017782;70;21107;-77
2021/11/01 12:31:15;;;;;;;13.43;7.00;;;29.80;90.90;;;;;;2011877;70;21111;-78
2021/11/01 12:33:53;;;;;;;10.95;6.47;;;29.70;91.00;;;;;;2011817;70;21195;-78
2021/11/01 12:36:24;;;;;;;13.08;6.17;;;29.70;91.00;;;;;;2010630;69;21217;-77
2021/11/01 12:39:05;;;;;;;12.33;6.55;;;29.70;91.10;;;;;;2020292;70;21568;-78
2021/11/01 12:44:40;;;;;;;13.62;7.30;;;29.70;91.30;;;;;;2019102;70;21143;-77
2021/11/01 12:56:59;;;;;;;13.60;8.25;;;29.70;91.90;;;;;;2010715;69;21223;-77
2021/11/01 12:59:15;;;;;;;15.13;8.13;;;29.60;92.30;;;;;;2020074;69;21119;-78
2021/11/01 13:01:48;;;;;;;16.75;8.30;;;29.60;92.40;;;;;;2010753;70;21174;-79
2021/11/01 13:04:31;;;;;;;14.10;7.85;;;29.60;92.60;;;;;;2023771;69;21127;-79
2021/11/01 13:09:32;;;;;;;15.75;9.45;;;29.50;92.60;;;;;;2011237;70;21405;-79
2021/11/01 13:19:42;;;;;;;12.73;8.08;;;29.50;92.50;;;;;;2008076;69;21200;-80
2021/11/01 13:22:19;;;;;;;13.62;8.50;;;29.50;92.50;;;;;;2013815;69;21111;-80
2021/11/01 13:28:03;;;;;;;13.75;8.08;;;29.50;92.40;;;;;;2005618;69;21615;-80
2021/11/01 13:37:36;;;;;;;14.33;8.20;;;29.40;92.20;;;;;;2011774;69;21152;-80
2021/11/01 13:40:05;;;;;;;15.63;8.20;;;29.40;92.20;;;;;;2012969;70;21115;-79
2021/11/01 13:42:45;;;;;;;14.63;7.75;;;29.40;92.20;;;;;;2015280;70;21152;-80
2021/11/01 13:45:14;;;;;;;12.55;7.95;;;29.40;92.10;;;;;;2027869;70;21109;-81
2021/11/01 13:47:47;;;;;;;15.78;8.03;;;29.30;92.20;;;;;;2003495;70;21164;-81
2021/11/01 13:50:21;;;;;;;13.20;8.05;;;29.30;92.30;;;;;;2004836;70;21523;-81
2021/11/01 13:52:54;;;;;;;14.93;7.90;;;29.30;92.30;;;;;;2016517;70;21151;-81
2021/11/01 13:55:45;;;;;;;16.85;8.03;;;29.30;92.40;;;;;;1996209;70;21093;-80
2021/11/01 13:58:14;;;;;;;12.95;8.15;;;29.30;92.40;;;;;;2004627;70;21741;-80
2021/11/01 14:03:13;;;;;;;12.55;7.30;;;29.30;92.40;;;;;;2017102;70;21192;-80
2021/11/01 15:05:32;;;;;;;14.15;7.40;;;29.10;92.90;;;;;;1976349;71;21147;-80
2021/11/01 15:14:30;;;;;;;12.98;8.18;;;29.00;93.00;;;;;;1999936;71;21224;-82
2021/11/01 15:32:46;;;;;;;12.98;8.40;;;28.90;93.20;;;;;;1994062;71;21052;-80
2021/11/01 16:18:06;;;;;;;14.75;9.65;;;28.60;94.10;;;;;;2011895;71;21131;-80
2021/11/01 16:20:40;;;;;;;15.98;8.93;;;28.60;94.30;;;;;;2001351;71;21169;-81
2021/11/01 16:25:54;;;;;;;16.73;10.15;;;28.50;94.40;;;;;;2013042;69;21033;-81
2021/11/01 16:28:19;;;;;;;15.63;9.55;;;28.50;94.50;;;;;;2004811;70;21112;-81
2021/11/01 16:31:18;;;;;;;17.02;10.48;;;28.50;94.50;;;;;;2006422;69;21119;-80
2021/11/01 16:33:30;;;;;;;16.30;9.13;;;28.50;94.50;;;;;;1999433;71;21115;-80
2021/11/01 16:35:58;;;;;;;14.85;9.38;;;28.50;94.70;;;;;;2012394;71;21040;-81
2021/11/01 16:38:34;;;;;;;15.18;8.90;;;28.50;94.80;;;;;;2008397;71;21145;-80
2021/11/01 16:41:02;;;;;;;13.98;9.38;;;28.40;94.90;;;;;;2006653;70;21792;-79
2021/11/01 16:43:33;;;;;;;14.43;9.08;;;28.40;94.70;;;;;;2011989;71;21104;-79
2021/11/01 16:46:04;;;;;;;17.62;9.78;;;28.40;94.80;;;;;;2008353;71;21111;-81
2021/11/01 16:48:36;;;;;;;15.43;8.88;;;28.40;94.90;;;;;;2008828;71;21081;-81
2021/11/01 16:51:08;;;;;;;14.58;9.60;;;28.30;94.90;;;;;;2010346;71;21040;-81
2021/11/01 16:53:41;;;;;;;13.90;9.05;;;28.30;95.00;;;;;;2010522;71;21180;-81
2021/11/01 16:56:41;;;;;;;13.30;8.08;;;28.30;95.00;;;;;;1992711;71;21883;-80
2021/11/01 16:58:48;;;;;;;12.20;8.40;;;28.30;94.80;;;;;;1994837;71;21108;-80
2021/11/01 17:01:22;;;;;;;14.63;8.53;;;28.20;94.80;;;;;;2020830;71;21549;-80
2021/11/01 17:03:54;;;;;;;15.45;9.45;;;28.30;94.90;;;;;;1996621;69;21110;-81
2021/11/01 17:21:53;;;;;;;13.90;10.23;;;28.20;95.30;;;;;;2002766;69;21131;-81
2021/11/01 17:24:22;;;;;;;13.78;9.25;;;28.10;95.50;;;;;;2019003;69;21129;-80
2021/11/01 17:37:18;;;;;;;15.10;10.60;;;28.00;95.90;;;;;;1994652;70;21108;-80
2021/11/01 18:41:09;;;;;;;9.13;5.60;;;27.60;95.50;;;;;;1984998;71;21518;-80
2021/11/01 18:51:11;;;;;;;8.90;5.65;;;27.50;95.60;;;;;;1995943;71;21093;-80
2021/11/01 18:53:44;;;;;;;9.03;5.20;;;27.50;95.60;;;;;;1987457;72;21136;-81
2021/11/01 18:56:15;;;;;;;9.45;5.55;;;27.50;96.10;;;;;;2009814;71;21146;-80
2021/11/01 18:58:46;;;;;;;9.68;5.35;;;27.50;95.70;;;;;;1995328;71;21115;-80
2021/11/01 19:01:17;;;;;;;8.70;5.22;;;27.50;95.80;;;;;;1989878;71;21560;-81
2021/11/01 19:03:53;;;;;;;8.28;4.65;;;27.40;95.70;;;;;;1987869;71;21128;-81
2021/11/01 20:03:31;;;;;;;8.35;4.10;;;27.00;96.40;;;;;;1981658;72;21134;-80
2021/11/01 21:26:50;;;;;;;6.87;4.17;;;26.70;96.40;;;;;;1961614;72;21075;-80
2021/11/01 21:29:21;;;;;;;8.55;4.60;;;26.70;96.40;;;;;;1996252;70;21633;-78
2021/11/01 21:31:52;;;;;;;6.00;4.50;;;26.70;96.40;;;;;;2003144;70;21185;-80
2021/11/01 21:36:57;;;;;;;11.35;5.67;;;26.70;96.30;;;;;;2022372;70;21504;-80
2021/11/01 21:39:28;;;;;;;9.10;5.25;;;26.70;96.30;;;;;;2003426;70;21119;-80
2021/11/01 21:42:00;;;;;;;9.83;3.90;;;26.70;96.40;;;;;;1994017;70;21567;-79
2021/11/01 21:44:35;;;;;;;5.90;3.12;;;26.60;96.30;;;;;;2014363;70;21201;-79
2021/11/01 21:47:05;;;;;;;7.37;3.17;;;26.60;96.40;;;;;;1996317;70;21162;-78
2021/11/01 21:49:36;;;;;;;4.67;2.62;;;26.60;96.30;;;;;;1945001;73;21111;-79
2021/11/01 21:52:09;;;;;;;4.97;2.67;;;26.60;96.30;;;;;;2009714;70;21497;-80
2021/11/01 21:57:25;;;;;;;5.10;3.30;;;26.50;96.30;;;;;;1993517;72;21107;-79
2021/11/01 22:20:05;;;;;;;8.78;4.03;;;26.50;96.20;;;;;;1991404;70;21127;-80
2021/11/01 22:25:08;;;;;;;6.58;3.62;;;26.40;96.20;;;;;;2003295;69;22225;-79
2021/11/01 22:40:24;;;;;;;5.78;2.58;;;26.30;95.90;;;;;;1993507;71;21075;-79
2021/11/01 22:58:02;;;;;;;5.58;3.25;;;26.20;96.20;;;;;;2009003;70;21165;-79
2021/11/01 23:00:36;;;;;;;8.93;3.60;;;26.20;95.80;;;;;;2005465;71;21172;-79
2021/11/01 23:03:14;;;;;;;12.45;4.83;;;26.10;95.70;;;;;;2019862;71;21099;-79
2021/11/01 23:33:36;;;;;;;9.48;5.50;;;26.20;95.80;;;;;;1942368;72;21166;-80
2021/11/01 23:36:08;;;;;;;7.70;4.12;;;26.20;95.90;;;;;;1937932;73;20996;-79
2021/11/01 23:38:39;;;;;;;9.95;4.53;;;26.20;95.90;;;;;;1895583;76;21200;-79
2021/11/01 23:41:10;;;;;;;6.22;4.50;;;26.20;95.90;;;;;;1907190;74;21061;-79
2021/11/01 23:43:41;;;;;;;7.33;4.53;;;26.20;96.00;;;;;;1951523;73;21673;-79
2021/11/01 23:46:12;;;;;;;10.03;4.60;;;26.20;95.90;;;;;;1945569;73;21173;-79
2021/11/01 23:48:45;;;;;;;6.90;4.55;;;26.20;95.90;;;;;;1956846;73;21118;-79
2021/11/01 23:51:19;;;;;;;8.48;5.50;;;26.20;95.80;;;;;;1918400;74;21162;-76
2021/11/01 23:56:20;;;;;;;10.28;5.50;;;26.30;95.70;;;;;;1936350;73;21858;-73
2021/11/01 23:58:52;;;;;;;7.65;3.80;;;26.20;95.60;;;;;;1945569;74;21169;-76
